createdAt,value
2023-04-22T00:00:25.299Z,0
2023-04-22T00:01:27.781Z,0
2023-04-22T00:03:24.723Z,0
2023-04-22T00:04:24.369Z,0
2023-04-22T00:05:23.777Z,0.109
2023-04-22T00:06:23.895Z,0
2023-04-22T00:07:24.521Z,0.109
2023-04-22T00:08:24.481Z,0
2023-04-22T00:09:24.008Z,0
2023-04-22T00:10:24.223Z,0
2023-04-22T00:11:23.608Z,0
2023-04-22T00:12:23.964Z,0
2023-04-22T00:13:23.747Z,0
2023-04-22T00:14:23.804Z,0
2023-04-22T00:15:24.084Z,0
2023-04-22T00:16:23.888Z,0
2023-04-22T00:17:23.882Z,0
2023-04-22T00:18:24.089Z,0
2023-04-22T00:19:23.613Z,0
2023-04-22T00:20:23.502Z,0
2023-04-22T00:21:23.740Z,0
2023-04-22T00:22:23.810Z,0.109
2023-04-22T00:23:23.772Z,0.109
2023-04-22T00:24:23.983Z,0.109
2023-04-22T00:25:23.874Z,0.109
2023-04-22T00:26:24.267Z,0.109
2023-04-22T00:27:23.763Z,0
2023-04-22T00:28:24.127Z,0
2023-04-22T00:29:23.908Z,0.109
2023-04-22T00:30:24.183Z,0.109
2023-04-22T00:31:24.143Z,0
2023-04-22T00:32:23.920Z,0.109
2023-04-22T00:33:23.709Z,0
2023-04-22T00:34:23.997Z,0.109
2023-04-22T00:35:24.442Z,0
2023-04-22T00:36:23.938Z,0
2023-04-22T00:37:24.202Z,0
2023-04-22T00:38:24.035Z,0
2023-04-22T00:39:23.610Z,0
2023-04-22T00:40:23.773Z,0.109
2023-04-22T00:41:24.106Z,0
2023-04-22T00:42:24.336Z,0
2023-04-22T00:43:24.046Z,0
2023-04-22T00:44:23.907Z,0
2023-04-22T00:45:24.207Z,0.109
2023-04-22T00:46:23.633Z,0.109
2023-04-22T00:47:24.318Z,0
2023-04-22T00:48:26.771Z,0
2023-04-22T00:49:23.494Z,0
2023-04-22T00:50:23.671Z,0
2023-04-22T00:51:23.940Z,0
2023-04-22T00:52:24.053Z,0.109
2023-04-22T00:53:24.192Z,0
2023-04-22T00:54:23.737Z,0
2023-04-22T00:55:24.307Z,0.109
2023-04-22T00:56:23.720Z,0.109
2023-04-22T00:57:23.937Z,0.109
2023-04-22T00:58:23.753Z,0
2023-04-22T00:59:24.159Z,0
2023-04-22T01:00:24.955Z,0
2023-04-22T01:01:23.997Z,0.219
2023-04-22T01:02:23.733Z,0.109
2023-04-22T01:03:24.305Z,0.109
2023-04-22T01:04:24.155Z,0.109
2023-04-22T01:05:24.025Z,0
2023-04-22T01:06:24.255Z,0
2023-04-22T01:07:24.098Z,0
2023-04-22T01:08:23.575Z,0
2023-04-22T01:09:24.057Z,0
2023-04-22T01:10:24.415Z,0.219
2023-04-22T01:11:23.982Z,0.109
2023-04-22T01:12:23.927Z,0
2023-04-22T01:13:23.709Z,0
2023-04-22T01:14:24.066Z,0.109
2023-04-22T01:15:24.235Z,0
2023-04-22T01:16:24.008Z,0
2023-04-22T01:17:24.342Z,0.109
2023-04-22T01:18:24.350Z,0
2023-04-22T01:19:24.219Z,0
2023-04-22T01:20:24.833Z,0
2023-04-22T01:21:23.867Z,0.109
2023-04-22T01:22:23.910Z,0
2023-04-22T01:23:23.922Z,0
2023-04-22T01:24:24.064Z,0.219
2023-04-22T01:25:23.581Z,0
2023-04-22T01:26:24.302Z,0
2023-04-22T01:27:23.902Z,0.109
2023-04-22T01:28:24.157Z,0
2023-04-22T01:29:23.786Z,0
2023-04-22T01:30:24.177Z,0
2023-04-22T01:31:24.026Z,0
2023-04-22T01:32:23.829Z,0
2023-04-22T01:33:23.893Z,0
2023-04-22T01:34:24.101Z,0.109
2023-04-22T01:35:23.735Z,0
2023-04-22T01:36:24.072Z,0
2023-04-22T01:37:24.074Z,0
2023-04-22T01:38:24.153Z,0.109
2023-04-22T01:39:24.158Z,0.109
2023-04-22T01:40:24.034Z,0.109
2023-04-22T01:41:23.760Z,0.109
2023-04-22T01:42:23.927Z,0.219
2023-04-22T01:43:23.975Z,0.109
2023-04-22T01:44:24.302Z,0.219
2023-04-22T01:45:24.173Z,0
2023-04-22T01:46:23.945Z,0.109
2023-04-22T01:47:23.664Z,0
2023-04-22T01:48:24.369Z,0.340
2023-04-22T01:49:23.696Z,0.119
2023-04-22T01:50:24.050Z,0
2023-04-22T01:51:23.732Z,0.109
2023-04-22T01:52:24.152Z,0.109
2023-04-22T01:53:23.815Z,0.119
2023-04-22T01:54:24.235Z,0.219
2023-04-22T01:55:24.218Z,0.100
2023-04-22T01:56:24.165Z,0.219
2023-04-22T01:57:23.955Z,0
2023-04-22T01:58:24.406Z,0
2023-04-22T01:59:23.743Z,0.519
2023-04-22T02:00:24.280Z,0.219
2023-04-22T02:01:24.150Z,0
2023-04-22T02:02:23.921Z,0.109
2023-04-22T02:03:24.160Z,0
2023-04-22T02:04:24.227Z,0
2023-04-22T02:05:24.151Z,0
2023-04-22T02:06:24.180Z,0.109
2023-04-22T02:07:24.113Z,0
2023-04-22T02:08:24.131Z,0
2023-04-22T02:09:23.641Z,0
2023-04-22T02:10:23.716Z,0.219
2023-04-22T02:11:23.914Z,0
2023-04-22T02:12:24.019Z,0.219
2023-04-22T02:13:23.930Z,0
2023-04-22T02:14:24.346Z,0.219
2023-04-22T02:15:24.109Z,0
2023-04-22T02:16:23.765Z,0
2023-04-22T02:17:24.255Z,0.109
2023-04-22T02:18:23.804Z,0
2023-04-22T02:19:24.047Z,0
2023-04-22T02:20:24.232Z,0
2023-04-22T02:21:23.431Z,0
2023-04-22T02:22:23.674Z,0
2023-04-22T02:23:23.900Z,0.109
2023-04-22T02:24:23.629Z,0
2023-04-22T02:25:23.991Z,0
2023-04-22T02:26:23.654Z,0
2023-04-22T02:27:24.017Z,0
2023-04-22T02:28:23.917Z,0.109
2023-04-22T02:29:24.699Z,0
2023-04-22T02:30:24.671Z,0
2023-04-22T02:31:24.237Z,0.109
2023-04-22T02:32:24.158Z,0.109
2023-04-22T02:33:24.262Z,0
2023-04-22T02:34:24.196Z,0.109
2023-04-22T02:35:24.195Z,0
2023-04-22T02:36:24.054Z,0
2023-04-22T02:37:24.062Z,0
2023-04-22T02:38:24.418Z,0.109
2023-04-22T02:39:24.315Z,0
2023-04-22T02:40:24.141Z,0
2023-04-22T02:41:23.758Z,0
2023-04-22T02:42:24.323Z,0
2023-04-22T02:43:24.081Z,0
2023-04-22T02:44:24.004Z,0
2023-04-22T02:45:24.333Z,0
2023-04-22T02:46:24.310Z,0
2023-04-22T02:47:24.002Z,0
2023-04-22T02:48:24.328Z,0
2023-04-22T02:49:24.022Z,0
2023-04-22T02:50:24.207Z,0
2023-04-22T02:51:23.916Z,0
2023-04-22T02:52:24.425Z,0
2023-04-22T02:53:24.004Z,0.109
2023-04-22T02:54:24.069Z,0.109
2023-04-22T02:55:24.554Z,0
2023-04-22T02:56:23.864Z,0.109
2023-04-22T02:57:32.230Z,0.109
2023-04-22T02:58:24.093Z,0.109
2023-04-22T02:59:32.142Z,0
2023-04-22T03:00:25.508Z,0
2023-04-22T03:01:38.175Z,0
2023-04-22T03:02:23.835Z,0
2023-04-22T03:03:24.245Z,0
2023-04-22T03:04:23.901Z,0
2023-04-22T03:05:24.189Z,0
2023-04-22T03:06:24.104Z,0.219
2023-04-22T03:07:23.882Z,0.109
2023-04-22T03:08:24.171Z,0
2023-04-22T03:09:28.395Z,0
2023-04-22T03:10:24.117Z,0.109
2023-04-22T03:11:23.896Z,0
2023-04-22T03:12:23.859Z,0
2023-04-22T03:13:23.937Z,0.219
2023-04-22T03:14:24.002Z,0.100
2023-04-22T03:15:23.846Z,0.119
2023-04-22T03:16:24.449Z,0
2023-04-22T03:17:23.933Z,0.109
2023-04-22T03:18:23.720Z,0.109
2023-04-22T03:19:24.119Z,0
2023-04-22T03:20:24.072Z,0.109
2023-04-22T03:21:24.005Z,0.219
2023-04-22T03:22:23.870Z,0.109
2023-04-22T03:23:23.515Z,0.109
2023-04-22T03:24:23.764Z,0
2023-04-22T03:25:23.917Z,0.219
2023-04-22T03:26:24.338Z,0.340
2023-04-22T03:27:24.142Z,0.109
2023-04-22T03:28:23.894Z,0.109
2023-04-22T03:29:24.098Z,0.219
2023-04-22T03:30:24.133Z,0.219
2023-04-22T03:31:23.742Z,0.109
2023-04-22T03:32:23.852Z,0
2023-04-22T03:33:23.994Z,0
2023-04-22T03:34:23.956Z,0
2023-04-22T03:35:23.900Z,0
2023-04-22T03:36:24.283Z,0.109
2023-04-22T03:37:24.180Z,0.109
2023-04-22T03:38:24.025Z,0
2023-04-22T03:39:23.550Z,0
2023-04-22T03:40:24.070Z,0.109
2023-04-22T03:41:24.094Z,0
2023-04-22T03:42:23.613Z,0
2023-04-22T03:43:24.198Z,0
2023-04-22T03:44:23.849Z,0
2023-04-22T03:45:24.312Z,0
2023-04-22T03:46:24.130Z,0
2023-04-22T03:47:24.216Z,13600
2023-04-22T03:48:23.906Z,13600
2023-04-22T03:49:23.733Z,13600
2023-04-22T03:50:24.128Z,13600
2023-04-22T03:51:23.750Z,13600
2023-04-22T03:52:24.277Z,13600
2023-04-22T03:53:24.078Z,13600
2023-04-22T03:54:23.939Z,13600
2023-04-22T03:55:23.725Z,13600
2023-04-22T03:56:24.278Z,13600
2023-04-22T03:57:23.919Z,0
2023-04-22T03:58:24.295Z,0
2023-04-22T03:59:24.050Z,0
2023-04-22T04:00:24.892Z,0
2023-04-22T04:01:23.639Z,0
2023-04-22T04:02:24.094Z,0.620
2023-04-22T04:03:23.955Z,0.449
2023-04-22T04:04:24.731Z,0.180
2023-04-22T04:05:24.167Z,0.449
2023-04-22T04:06:23.946Z,1.049
2023-04-22T04:07:24.430Z,1.509
2023-04-22T04:08:24.132Z,1.019
2023-04-22T04:09:23.751Z,2.039
2023-04-22T04:10:24.108Z,2.539
2023-04-22T04:11:23.837Z,2.799
2023-04-22T04:12:24.437Z,3.809
2023-04-22T04:13:24.099Z,4.010
2023-04-22T04:14:23.644Z,4.909
2023-04-22T04:15:24.293Z,5.860
2023-04-22T04:16:23.960Z,7.019
2023-04-22T04:17:23.551Z,8.180
2023-04-22T04:18:24.297Z,9.590
2023-04-22T04:19:24.249Z,11.25
2023-04-22T04:20:24.344Z,12.89
2023-04-22T04:21:24.213Z,15.35
2023-04-22T04:22:24.660Z,17.32
2023-04-22T04:23:24.096Z,19.70
2023-04-22T04:24:24.204Z,22.70
2023-04-22T04:25:24.559Z,25.94
2023-04-22T04:26:24.303Z,28.89
2023-04-22T04:27:24.426Z,32.18
2023-04-22T04:28:24.219Z,34.81
2023-04-22T04:29:24.153Z,36.5
2023-04-22T04:30:24.419Z,37.70
2023-04-22T04:31:25.079Z,39.58
2023-04-22T04:32:23.843Z,42.5
2023-04-22T04:33:25.417Z,46.29
2023-04-22T04:34:24.504Z,49.5
2023-04-22T04:35:24.089Z,52.79
2023-04-22T04:36:23.832Z,57.09
2023-04-22T04:37:24.489Z,63.79
2023-04-22T04:38:24.218Z,70.69
2023-04-22T04:39:24.213Z,77.90
2023-04-22T04:40:24.315Z,84.90
2023-04-22T04:41:24.229Z,92.40
2023-04-22T04:42:24.142Z,102
2023-04-22T04:43:23.876Z,113
2023-04-22T04:44:24.014Z,122.3
2023-04-22T04:45:24.155Z,125.9
2023-04-22T04:46:24.092Z,131.3
2023-04-22T04:47:24.236Z,140
2023-04-22T04:48:24.069Z,151
2023-04-22T04:49:24.255Z,163
2023-04-22T04:50:24.711Z,178
2023-04-22T04:51:23.883Z,194
2023-04-22T04:52:24.212Z,212
2023-04-22T04:53:24.187Z,233
2023-04-22T04:54:23.856Z,255
2023-04-22T04:55:24.092Z,277
2023-04-22T04:56:24.169Z,294
2023-04-22T04:57:24.164Z,300.7
2023-04-22T04:58:23.979Z,297.6
2023-04-22T04:59:24.379Z,285
2023-04-22T05:00:25.034Z,274.7
2023-04-22T05:01:24.320Z,265.3
2023-04-22T05:02:24.504Z,266
2023-04-22T05:03:24.293Z,278
2023-04-22T05:04:24.027Z,298
2023-04-22T05:05:24.521Z,316
2023-04-22T05:06:25.034Z,324.3
2023-04-22T05:07:24.698Z,323.2
2023-04-22T05:08:24.712Z,315.7
2023-04-22T05:09:24.398Z,313.7
2023-04-22T05:10:24.446Z,325
2023-04-22T05:11:24.450Z,345
2023-04-22T05:12:24.170Z,370
2023-04-22T05:13:24.430Z,410
2023-04-22T05:14:23.813Z,445
2023-04-22T05:15:24.742Z,461.5
2023-04-22T05:16:23.994Z,453
2023-04-22T05:17:23.961Z,450.5
2023-04-22T05:18:24.445Z,455
2023-04-22T05:19:24.792Z,459.5
2023-04-22T05:20:24.598Z,458.2
2023-04-22T05:21:24.270Z,450.6
2023-04-22T05:22:24.194Z,435
2023-04-22T05:23:24.155Z,414
2023-04-22T05:24:24.499Z,398
2023-04-22T05:25:24.633Z,391.2
2023-04-22T05:26:23.748Z,395
2023-04-22T05:27:23.808Z,408
2023-04-22T05:28:24.385Z,423
2023-04-22T05:29:24.318Z,448
2023-04-22T05:30:24.746Z,470
2023-04-22T05:31:24.010Z,507
2023-04-22T05:32:37.968Z,527
2023-04-22T05:33:24.076Z,537
2023-04-22T05:34:24.140Z,545.5
2023-04-22T05:35:24.253Z,551.5
2023-04-22T05:36:24.462Z,563
2023-04-22T05:37:23.554Z,582
2023-04-22T05:38:24.382Z,606
2023-04-22T05:39:24.327Z,633
2023-04-22T05:40:23.735Z,659
2023-04-22T05:41:24.468Z,680
2023-04-22T05:42:24.366Z,720
2023-04-22T05:43:24.292Z,760
2023-04-22T05:44:24.181Z,800
2023-04-22T05:45:23.986Z,850
2023-04-22T05:46:24.045Z,900
2023-04-22T05:47:24.387Z,950
2023-04-22T05:48:24.286Z,990
2023-04-22T05:49:24.093Z,1030
2023-04-22T05:50:24.394Z,1061
2023-04-22T05:51:24.586Z,1086
2023-04-22T05:52:25.018Z,1107
2023-04-22T05:53:24.416Z,1128
2023-04-22T05:54:24.585Z,1142.
2023-04-22T05:55:24.303Z,1146.
2023-04-22T05:56:24.213Z,1142.
2023-04-22T05:57:23.869Z,1129
2023-04-22T05:58:23.944Z,1114
2023-04-22T05:59:24.374Z,1104.
2023-04-22T06:00:47.053Z,1098.
2023-04-22T06:01:24.401Z,1097.
2023-04-22T06:02:24.218Z,1108
2023-04-22T06:03:24.292Z,1133
2023-04-22T06:04:24.843Z,1160
2023-04-22T06:05:23.939Z,1200
2023-04-22T06:07:28.266Z,1260
2023-04-22T06:08:24.328Z,1273
2023-04-22T06:09:23.986Z,1230
2023-04-22T06:10:24.612Z,1180
2023-04-22T06:11:23.833Z,1120
2023-04-22T06:12:24.051Z,1080
2023-04-22T06:13:23.802Z,1040
2023-04-22T06:14:24.350Z,990
2023-04-22T06:15:24.423Z,946
2023-04-22T06:16:24.373Z,949
2023-04-22T06:17:24.021Z,990
2023-04-22T06:18:23.999Z,1050
2023-04-22T06:19:24.089Z,1140
2023-04-22T06:20:24.727Z,1230
2023-04-22T06:21:23.686Z,1330
2023-04-22T06:22:24.630Z,1400
2023-04-22T06:23:24.412Z,1500
2023-04-22T06:24:24.443Z,1640
2023-04-22T06:25:24.410Z,1710
2023-04-22T06:26:24.408Z,1770
2023-04-22T06:27:24.517Z,1797
2023-04-22T06:28:23.781Z,1802
2023-04-22T06:29:24.550Z,1760
2023-04-22T06:30:24.353Z,1700
2023-04-22T06:31:23.867Z,1660
2023-04-22T06:32:23.923Z,1620
2023-04-22T06:33:24.360Z,1590
2023-04-22T06:34:24.020Z,1560
2023-04-22T06:35:24.064Z,1520
2023-04-22T06:36:24.046Z,1491
2023-04-22T06:37:23.979Z,1475.
2023-04-22T06:38:24.009Z,1474
2023-04-22T06:39:24.027Z,1463.
2023-04-22T06:40:24.910Z,1463
2023-04-22T06:41:24.030Z,1480
2023-04-22T06:43:27.354Z,1540
2023-04-22T06:44:24.666Z,1570
2023-04-22T06:45:24.534Z,1620
2023-04-22T06:46:24.517Z,1658
2023-04-22T06:47:24.270Z,1681
2023-04-22T06:48:24.355Z,1706
2023-04-22T06:49:24.433Z,1731
2023-04-22T06:50:23.881Z,1750
2023-04-22T06:51:23.997Z,1790
2023-04-22T06:52:24.253Z,1820
2023-04-22T06:53:24.011Z,1860
2023-04-22T06:54:23.983Z,1910
2023-04-22T06:55:23.788Z,1955
2023-04-22T06:56:23.981Z,1984
2023-04-22T06:57:23.958Z,2010
2023-04-22T06:58:24.498Z,2050
2023-04-22T06:59:24.257Z,2080
2023-04-22T07:00:25.163Z,2130
2023-04-22T07:01:24.356Z,2170
2023-04-22T07:02:24.729Z,2210
2023-04-22T07:03:24.365Z,2260
2023-04-22T07:04:24.009Z,2302
2023-04-22T07:05:24.570Z,2310
2023-04-22T07:06:24.077Z,2340
2023-04-22T07:07:24.098Z,2371
2023-04-22T07:08:24.276Z,2381
2023-04-22T07:09:24.134Z,2392
2023-04-22T07:10:23.977Z,2399
2023-04-22T07:11:23.572Z,2408
2023-04-22T07:12:24.037Z,2395
2023-04-22T07:13:23.934Z,2360
2023-04-22T07:14:23.619Z,2310
2023-04-22T07:15:24.547Z,2270
2023-04-22T07:16:23.955Z,2210
2023-04-22T07:17:24.057Z,2180
2023-04-22T07:18:23.784Z,2200
2023-04-22T07:19:23.929Z,2400
2023-04-22T07:20:24.534Z,2400
2023-04-22T07:21:24.430Z,2500
2023-04-22T07:22:23.547Z,2650
2023-04-22T07:23:24.544Z,2650
2023-04-22T07:24:23.809Z,2700
2023-04-22T07:25:25.005Z,2791
2023-04-22T07:26:24.215Z,2800
2023-04-22T07:27:24.499Z,2900
2023-04-22T07:28:24.267Z,3070
2023-04-22T07:29:24.199Z,3140
2023-04-22T07:30:24.209Z,3200
2023-04-22T07:31:24.121Z,3240
2023-04-22T07:32:24.609Z,3282
2023-04-22T07:33:29.368Z,3300
2023-04-22T07:34:24.155Z,3410
2023-04-22T07:35:28.836Z,3490
2023-04-22T07:36:24.434Z,3570
2023-04-22T07:37:29.270Z,3640
2023-04-22T07:38:23.873Z,3720
2023-04-22T07:39:24.629Z,3800
2023-04-22T07:40:24.506Z,3900
2023-04-22T07:41:23.850Z,3800
2023-04-22T07:42:23.669Z,4000
2023-04-22T07:43:24.537Z,4100
2023-04-22T07:44:24.267Z,4400
2023-04-22T07:45:24.534Z,4000
2023-04-22T07:46:24.653Z,5000
2023-04-22T07:47:32.294Z,0
2023-04-22T07:48:24.230Z,0
2023-04-22T07:49:24.464Z,0
2023-04-22T07:50:24.723Z,10000
2023-04-22T07:51:23.549Z,10000
2023-04-22T07:52:24.286Z,10000
2023-04-22T07:53:24.215Z,10000
2023-04-22T07:54:23.837Z,10000
2023-04-22T07:55:23.962Z,0
2023-04-22T07:56:23.923Z,20000
2023-04-22T07:57:23.789Z,0
2023-04-22T07:58:24.540Z,0
2023-04-22T07:59:24.314Z,10000
2023-04-22T08:00:25.164Z,0
2023-04-22T08:01:24.317Z,0
2023-04-22T08:02:24.428Z,0
2023-04-22T08:03:24.922Z,0
2023-04-22T08:04:24.609Z,7000
2023-04-22T08:05:24.286Z,6000
2023-04-22T08:06:24.288Z,0
2023-04-22T08:07:32.503Z,5000
2023-04-22T08:08:24.330Z,5000
2023-04-22T08:09:24.608Z,5000
2023-04-22T08:10:24.274Z,5000
2023-04-22T08:11:24.227Z,5200
2023-04-22T08:12:24.032Z,5000
2023-04-22T08:13:23.639Z,5200
2023-04-22T08:14:24.052Z,5000
2023-04-22T08:15:24.324Z,5000
2023-04-22T08:16:23.979Z,5000
2023-04-22T08:17:23.896Z,5000
2023-04-22T08:18:24.370Z,4800
2023-04-22T08:19:24.128Z,5000
2023-04-22T08:20:24.475Z,4000
2023-04-22T08:21:24.768Z,4000
2023-04-22T08:22:24.415Z,4000
2023-04-22T08:23:24.450Z,4300
2023-04-22T08:24:24.308Z,4200
2023-04-22T08:25:24.230Z,4000
2023-04-22T08:26:24.322Z,4000
2023-04-22T08:27:24.317Z,4800
2023-04-22T08:28:24.724Z,5100
2023-04-22T08:29:24.214Z,5070
2023-04-22T08:30:24.474Z,5000
2023-04-22T08:31:24.726Z,5200
2023-04-22T08:32:24.621Z,5330
2023-04-22T08:33:26.631Z,5350
2023-04-22T08:34:24.647Z,5430
2023-04-22T08:35:24.854Z,5300
2023-04-22T08:36:23.699Z,5240
2023-04-22T08:37:24.330Z,5200
2023-04-22T08:38:24.496Z,5340
2023-04-22T08:39:24.325Z,5300
2023-04-22T08:40:23.980Z,5100
2023-04-22T08:41:24.245Z,5100
2023-04-22T08:42:23.924Z,5300
2023-04-22T08:43:24.200Z,5200
2023-04-22T08:44:24.357Z,5200
2023-04-22T08:45:24.623Z,5200
2023-04-22T08:46:24.533Z,5400
2023-04-22T08:47:24.445Z,5600
2023-04-22T08:48:24.354Z,5600
2023-04-22T08:49:24.145Z,5800
2023-04-22T08:50:23.798Z,5900
2023-04-22T08:51:23.718Z,5800
2023-04-22T08:52:24.384Z,5700
2023-04-22T08:53:24.976Z,5400
2023-04-22T08:54:23.807Z,5000
2023-04-22T08:55:24.389Z,4800
2023-04-22T08:56:23.911Z,4600
2023-04-22T08:57:24.526Z,4000
2023-04-22T08:58:24.102Z,5100
2023-04-22T08:59:23.878Z,5200
2023-04-22T09:00:24.855Z,5200
2023-04-22T09:01:24.244Z,4900
2023-04-22T09:02:24.494Z,5000
2023-04-22T09:03:24.517Z,5000
2023-04-22T09:04:24.684Z,6000
2023-04-22T09:05:26.012Z,6300
2023-04-22T09:06:24.746Z,6200
2023-04-22T09:07:23.911Z,6000
2023-04-22T09:08:23.782Z,6000
2023-04-22T09:09:24.304Z,6000
2023-04-22T09:10:23.941Z,6000
2023-04-22T09:11:24.244Z,6000
2023-04-22T09:12:23.871Z,5000
2023-04-22T09:13:24.291Z,5300
2023-04-22T09:14:24.183Z,5000
2023-04-22T09:15:24.223Z,0
2023-04-22T09:16:24.134Z,6000
2023-04-22T09:17:24.232Z,5000
2023-04-22T09:18:24.367Z,5000
2023-04-22T09:19:24.186Z,5000
2023-04-22T09:20:23.878Z,5000
2023-04-22T09:21:24.067Z,5000
2023-04-22T09:22:24.061Z,4000
2023-04-22T09:23:24.073Z,4000
2023-04-22T09:24:24.241Z,4600
2023-04-22T09:25:24.195Z,0
2023-04-22T09:26:24.020Z,6000
2023-04-22T09:27:23.952Z,6800
2023-04-22T09:28:24.154Z,6000
2023-04-22T09:29:24.195Z,0
2023-04-22T09:30:24.247Z,6000
2023-04-22T09:31:24.121Z,7000
2023-04-22T09:32:24.375Z,6700
2023-04-22T09:33:24.045Z,6600
2023-04-22T09:34:23.723Z,6000
2023-04-22T09:35:24.282Z,6000
2023-04-22T09:36:24.245Z,6000
2023-04-22T09:37:25.091Z,6000
2023-04-22T09:38:24.197Z,6000
2023-04-22T09:39:24.307Z,6400
2023-04-22T09:40:24.929Z,6000
2023-04-22T09:41:24.866Z,6000
2023-04-22T09:42:25.015Z,0
2023-04-22T09:43:24.849Z,6000
2023-04-22T09:44:24.024Z,6000
2023-04-22T09:45:24.174Z,7000
2023-04-22T09:46:24.460Z,7100
2023-04-22T09:47:24.429Z,7000
2023-04-22T09:48:24.626Z,6900
2023-04-22T09:49:24.366Z,0
2023-04-22T09:50:24.513Z,5000
2023-04-22T09:51:24.404Z,6000
2023-04-22T09:52:24.217Z,7000
2023-04-22T09:53:24.182Z,6800
2023-04-22T09:54:24.294Z,6000
2023-04-22T09:55:24.307Z,6000
2023-04-22T09:56:24.738Z,7300
2023-04-22T09:57:24.019Z,7000
2023-04-22T09:58:24.445Z,7000
2023-04-22T09:59:24.579Z,7000
2023-04-22T10:00:24.689Z,0
2023-04-22T10:01:24.173Z,5000
2023-04-22T10:02:29.379Z,4940
2023-04-22T10:03:24.065Z,5000
2023-04-22T10:04:24.306Z,5000
2023-04-22T10:05:24.371Z,5000
2023-04-22T10:06:24.006Z,5000
2023-04-22T10:07:23.988Z,5600
2023-04-22T10:08:23.874Z,5800
2023-04-22T10:09:24.121Z,5000
2023-04-22T10:10:24.410Z,6000
2023-04-22T10:11:24.637Z,6100
2023-04-22T10:12:32.900Z,6100
2023-04-22T10:13:24.622Z,6000
2023-04-22T10:14:24.010Z,6100
2023-04-22T10:15:26.787Z,6300
2023-04-22T10:16:24.647Z,6400
2023-04-22T10:17:24.630Z,6500
2023-04-22T10:18:24.684Z,6500
2023-04-22T10:19:24.847Z,6700
2023-04-22T10:20:38.761Z,6600
2023-04-22T10:21:26.193Z,6000
2023-04-22T10:22:24.256Z,7000
2023-04-22T10:23:23.798Z,0
2023-04-22T10:24:24.135Z,0
2023-04-22T10:25:24.139Z,0
2023-04-22T10:26:24.504Z,0
2023-04-22T10:27:24.369Z,10000
2023-04-22T10:28:24.484Z,0
2023-04-22T10:29:24.377Z,0
2023-04-22T10:30:24.506Z,0
2023-04-22T10:31:24.597Z,0
2023-04-22T10:32:24.928Z,6000
2023-04-22T10:33:24.260Z,6000
2023-04-22T10:34:24.354Z,6000
2023-04-22T10:35:24.652Z,6100
2023-04-22T10:36:24.137Z,6000
2023-04-22T10:37:24.292Z,6000
2023-04-22T10:38:24.090Z,5969
2023-04-22T10:39:24.168Z,5957.
2023-04-22T10:40:24.844Z,5980
2023-04-22T10:41:24.220Z,6000
2023-04-22T10:42:24.333Z,6200
2023-04-22T10:43:24.427Z,6000
2023-04-22T10:44:24.318Z,7000
2023-04-22T10:45:24.579Z,0
2023-04-22T10:46:24.159Z,0
2023-04-22T10:47:24.644Z,0
2023-04-22T10:48:24.352Z,8000
2023-04-22T10:49:24.722Z,8000
2023-04-22T10:50:24.136Z,7500
2023-04-22T10:51:24.284Z,7000
2023-04-22T10:52:24.579Z,7000
2023-04-22T10:53:24.621Z,0
2023-04-22T10:54:24.637Z,0
2023-04-22T10:55:24.416Z,0
2023-04-22T10:56:24.381Z,7000
2023-04-22T10:57:24.332Z,7400
2023-04-22T10:58:24.261Z,7200
2023-04-22T10:59:23.975Z,7190
2023-04-22T11:00:25.300Z,7200
2023-04-22T11:01:24.378Z,7000
2023-04-22T11:02:24.646Z,8000
2023-04-22T11:03:24.558Z,0
2023-04-22T11:04:24.326Z,8000
2023-04-22T11:05:26.165Z,0
2023-04-22T11:06:23.916Z,7900
2023-04-22T11:07:24.263Z,8000
2023-04-22T11:08:24.114Z,9000
2023-04-22T11:09:24.283Z,10000
2023-04-22T11:10:23.903Z,10000
2023-04-22T11:11:23.971Z,9000
2023-04-22T11:12:24.291Z,0
2023-04-22T11:13:24.763Z,8000
2023-04-22T11:14:24.398Z,8000
2023-04-22T11:15:24.473Z,0
2023-04-22T11:16:24.171Z,0
2023-04-22T11:17:24.114Z,8800
2023-04-22T11:18:24.312Z,8900
2023-04-22T11:19:24.239Z,8000
2023-04-22T11:20:24.926Z,8400
2023-04-22T11:21:24.266Z,8000
2023-04-22T11:22:24.634Z,0
2023-04-22T11:23:25.049Z,8000
2023-04-22T11:24:24.129Z,8000
2023-04-22T11:25:24.419Z,7000
2023-04-22T11:26:24.042Z,7050
2023-04-22T11:27:24.173Z,7000
2023-04-22T11:28:24.744Z,7000
2023-04-22T11:29:24.088Z,8000
2023-04-22T11:30:24.973Z,7000
2023-04-22T11:31:23.794Z,7740
2023-04-22T11:32:24.295Z,7700
2023-04-22T11:33:24.399Z,7000
2023-04-22T11:34:24.477Z,8000
2023-04-22T11:35:24.095Z,0
2023-04-22T11:36:24.321Z,6000
2023-04-22T11:37:24.636Z,5900
2023-04-22T11:38:24.766Z,5800
2023-04-22T11:39:24.068Z,5772
2023-04-22T11:40:30.002Z,5810
2023-04-22T11:41:24.658Z,5860
2023-04-22T11:42:24.590Z,5910
2023-04-22T11:43:24.320Z,5955
2023-04-22T11:44:24.083Z,5980
2023-04-22T11:45:24.260Z,6040
2023-04-22T11:46:24.195Z,6099
2023-04-22T11:47:24.396Z,5900
2023-04-22T11:48:24.497Z,5600
2023-04-22T11:49:24.364Z,5400
2023-04-22T11:50:24.659Z,5000
2023-04-22T11:51:24.492Z,4900
2023-04-22T11:52:24.491Z,4700
2023-04-22T11:53:24.245Z,4630
2023-04-22T11:54:24.049Z,4540
2023-04-22T11:55:23.877Z,4500
2023-04-22T11:56:23.925Z,4600
2023-04-22T11:57:24.136Z,4800
2023-04-22T11:58:23.984Z,5000
2023-04-22T11:59:24.232Z,5000
2023-04-22T12:00:25.497Z,6000
2023-04-22T12:01:23.968Z,0
2023-04-22T12:02:24.628Z,5000
2023-04-22T12:03:24.979Z,5020
2023-04-22T12:04:24.764Z,4800
2023-04-22T12:05:24.542Z,4830
2023-04-22T12:06:24.519Z,4860
2023-04-22T12:07:24.642Z,4860
2023-04-22T12:08:24.085Z,4907
2023-04-22T12:09:24.315Z,4917.
2023-04-22T12:10:24.462Z,4940
2023-04-22T12:11:24.159Z,4800
2023-04-22T12:12:24.290Z,4500
2023-04-22T12:13:24.401Z,4300
2023-04-22T12:14:24.233Z,4100
2023-04-22T12:15:24.538Z,3900
2023-04-22T12:16:24.213Z,3800
2023-04-22T12:17:24.158Z,3500
2023-04-22T12:18:24.298Z,3300
2023-04-22T12:19:24.202Z,3275
2023-04-22T12:20:24.753Z,3300
2023-04-22T12:21:24.612Z,3500
2023-04-22T12:22:24.093Z,3600
2023-04-22T12:23:29.421Z,3700
2023-04-22T12:24:24.151Z,3840
2023-04-22T12:25:23.738Z,3891.
2023-04-22T12:26:26.201Z,3877
2023-04-22T12:27:24.407Z,3862
2023-04-22T12:28:24.265Z,3810
2023-04-22T12:29:24.631Z,3803
2023-04-22T12:30:24.668Z,3850
2023-04-22T12:31:29.483Z,3896
2023-04-22T12:32:25.004Z,3880
2023-04-22T12:33:29.747Z,3810
2023-04-22T12:34:24.534Z,3803
2023-04-22T12:35:32.260Z,3800
2023-04-22T12:36:24.133Z,3940
2023-04-22T12:37:24.009Z,4000
2023-04-22T12:38:24.204Z,4014
2023-04-22T12:39:24.195Z,3940
2023-04-22T12:40:24.512Z,3890
2023-04-22T12:41:24.309Z,3891
2023-04-22T12:42:24.411Z,3800
2023-04-22T12:43:24.233Z,3720
2023-04-22T12:44:25.222Z,3600
2023-04-22T12:45:24.514Z,3590
2023-04-22T12:46:24.506Z,3619
2023-04-22T12:47:24.458Z,3700
2023-04-22T12:48:24.334Z,3840
2023-04-22T12:49:23.912Z,3800
2023-04-22T12:50:24.165Z,3600
2023-04-22T12:51:24.330Z,3300
2023-04-22T12:52:24.162Z,3100
2023-04-22T12:53:23.905Z,2900
2023-04-22T12:54:24.364Z,2872
2023-04-22T12:55:24.190Z,2869.
2023-04-22T12:56:24.023Z,2875
2023-04-22T12:57:24.410Z,2910
2023-04-22T12:58:24.320Z,2946.
2023-04-22T12:59:24.073Z,2950
2023-04-22T13:00:25.293Z,2800
2023-04-22T13:01:24.748Z,2700
2023-04-22T13:02:24.152Z,2640
2023-04-22T13:03:24.560Z,2600
2023-04-22T13:04:24.330Z,2560
2023-04-22T13:05:24.863Z,2590
2023-04-22T13:06:24.249Z,2400
2023-04-22T13:07:24.370Z,2330
2023-04-22T13:08:24.211Z,2250
2023-04-22T13:09:46.192Z,2190
2023-04-22T13:10:24.397Z,2140
2023-04-22T13:11:24.566Z,2115
2023-04-22T13:12:24.854Z,2070
2023-04-22T13:13:24.167Z,2040
2023-04-22T13:14:24.264Z,1980
2023-04-22T13:15:24.398Z,1880
2023-04-22T13:16:24.217Z,1790
2023-04-22T13:17:24.561Z,1700
2023-04-22T13:18:24.384Z,1655
2023-04-22T13:19:24.099Z,1643
2023-04-22T13:20:24.386Z,1646
2023-04-22T13:21:24.092Z,1690
2023-04-22T13:22:24.122Z,1700
2023-04-22T13:23:24.190Z,1890
2023-04-22T13:24:24.202Z,1931
2023-04-22T13:25:23.477Z,1880
2023-04-22T13:26:24.443Z,1790
2023-04-22T13:27:23.757Z,1690
2023-04-22T13:28:24.422Z,1630
2023-04-22T13:29:24.143Z,1580
2023-04-22T13:30:24.535Z,1561
2023-04-22T13:31:24.345Z,1530
2023-04-22T13:32:24.919Z,1498
2023-04-22T13:33:24.442Z,1478
2023-04-22T13:34:24.463Z,1458
2023-04-22T13:36:28.392Z,1480